createdAt,value
2018-06-14T00:02:11.758Z,101070.64
2018-06-14T00:04:40.675Z,101072.06
2018-06-14T00:07:08.412Z,101078.01
2018-06-14T00:09:37.323Z,101080.36
2018-06-14T00:12:05.076Z,101078.23
2018-06-14T00:14:33.987Z,101084.77
2018-06-14T00:17:02.310Z,101086.86
2018-06-14T00:19:30.641Z,101091.94
2018-06-14T00:21:58.974Z,101090.22
2018-06-14T00:24:27.290Z,101093.51
2018-06-14T00:26:55.050Z,101092.96
2018-06-14T00:29:23.953Z,101095.01
2018-06-14T00:31:51.717Z,101100.67
2018-06-14T00:34:20.683Z,101101.23
2018-06-14T00:36:49.338Z,101102.41
2018-06-14T00:39:17.891Z,101102.06
2018-06-14T00:41:46.012Z,101101.05
2018-06-14T00:44:13.757Z,101098.91
2018-06-14T00:46:42.081Z,101102.05
2018-06-14T00:49:10.414Z,101104.08
2018-06-14T00:51:39.324Z,101108.61
2018-06-14T00:54:07.654Z,101106.23
2018-06-14T00:56:35.401Z,101102.03
2018-06-14T00:59:04.305Z,101100.12
2018-06-14T01:01:32.851Z,101098.09
2018-06-14T01:04:00.968Z,101101.03
2018-06-14T01:06:29.303Z,101098.53
2018-06-14T01:08:57.613Z,101099.52
2018-06-14T01:11:26.556Z,101093.81
2018-06-14T01:13:53.698Z,101097.13
2018-06-14T01:16:22.020Z,101096.14
2018-06-14T01:18:50.361Z,101089.68
2018-06-14T01:21:18.688Z,101085.47
2018-06-14T01:23:47.588Z,101088.52
2018-06-14T01:26:15.913Z,101085.73
2018-06-14T01:28:43.667Z,101091.33
2018-06-14T01:31:11.992Z,101095.00
2018-06-14T01:33:40.908Z,101099.13
2018-06-14T01:36:09.269Z,101088.88
2018-06-14T01:38:37.017Z,101088.52
2018-06-14T01:41:05.922Z,101094.24
2018-06-14T01:43:34.253Z,101090.00
2018-06-14T01:46:02.593Z,101084.59
2018-06-14T01:48:30.911Z,101084.30
2018-06-14T01:50:59.245Z,101081.66
2018-06-14T01:53:27.568Z,101079.94
2018-06-14T01:55:55.320Z,101083.36
2018-06-14T01:58:24.236Z,101087.34
2018-06-14T02:00:53.216Z,101093.89
2018-06-14T02:03:20.897Z,101088.86
2018-06-14T02:05:49.219Z,101091.59
2018-06-14T02:08:17.553Z,101087.02
2018-06-14T02:10:45.870Z,101094.58
2018-06-14T02:13:13.630Z,101100.07
2018-06-14T02:15:42.531Z,101102.80
2018-06-14T02:18:11.202Z,101094.83
2018-06-14T02:20:39.535Z,101098.60
2018-06-14T02:23:07.874Z,101099.41
2018-06-14T02:25:36.236Z,101104.38
2018-06-14T02:28:04.560Z,101105.84
2018-06-14T02:30:32.882Z,101102.00
2018-06-14T02:33:00.627Z,101101.11
2018-06-14T02:35:28.997Z,101104.42
2018-06-14T02:37:57.354Z,101107.11
2018-06-14T02:40:26.179Z,101106.58
2018-06-14T02:42:54.585Z,101105.73
2018-06-14T02:45:22.919Z,101111.36
2018-06-14T02:47:50.683Z,101111.24
2018-06-14T02:50:19.590Z,101114.13
2018-06-14T02:52:47.346Z,101114.31
2018-06-14T02:55:16.259Z,101113.58
2018-06-14T02:57:44.007Z,101120.38
2018-06-14T03:00:12.880Z,101122.77
2018-06-14T03:02:40.687Z,101126.83
2018-06-14T03:05:09.723Z,101127.27
2018-06-14T03:07:38.047Z,101128.41
2018-06-14T03:10:05.804Z,101121.05
2018-06-14T03:12:34.747Z,101120.95
2018-06-14T03:15:03.106Z,101126.09
2018-06-14T03:17:31.444Z,101127.50
2018-06-14T03:19:59.194Z,101124.02
2018-06-14T03:22:28.320Z,101128.13
2018-06-14T03:24:56.640Z,101126.52
2018-06-14T03:27:24.974Z,101126.86
2018-06-14T03:29:53.521Z,101131.05
2018-06-14T03:32:21.268Z,101133.86
2018-06-14T03:34:50.195Z,101135.05
2018-06-14T03:37:17.940Z,101133.05
2018-06-14T03:39:46.859Z,101132.07
2018-06-14T03:42:15.221Z,101128.33
2018-06-14T03:44:42.966Z,101131.06
2018-06-14T03:47:11.887Z,101132.58
2018-06-14T03:49:40.205Z,101137.51
2018-06-14T03:52:07.953Z,101139.42
2018-06-14T03:54:36.282Z,101137.59
2018-06-14T03:57:04.615Z,101143.70
2018-06-14T03:59:33.522Z,101140.48
2018-06-14T04:02:02.073Z,101144.88
2018-06-14T04:04:29.602Z,101146.64
2018-06-14T04:06:58.772Z,101148.48
2018-06-14T04:09:26.292Z,101141.54
2018-06-14T04:11:55.473Z,101142.34
2018-06-14T04:14:23.217Z,101146.63
2018-06-14T04:16:52.130Z,101144.47
2018-06-14T04:19:19.876Z,101146.23
2018-06-14T04:21:48.777Z,101147.16
2018-06-14T04:24:17.114Z,101150.92
2018-06-14T04:26:45.428Z,101148.06
2018-06-14T04:29:13.776Z,101145.17
2018-06-14T04:31:42.093Z,101149.55
2018-06-14T04:34:10.407Z,101151.70
2018-06-14T04:36:38.165Z,101150.05
2018-06-14T04:39:06.478Z,101155.34
2018-06-14T04:41:34.868Z,101156.16
2018-06-14T04:44:03.778Z,101159.66
2018-06-14T04:46:32.116Z,101159.07
2018-06-14T04:49:00.437Z,101159.58
2018-06-14T04:51:28.182Z,101158.38
2018-06-14T04:53:57.087Z,101158.55
2018-06-14T04:56:24.859Z,101164.22
2018-06-14T04:58:53.744Z,101163.80
2018-06-14T05:01:21.716Z,101160.91
2018-06-14T05:03:50.400Z,101174.67
2018-06-14T05:06:18.719Z,101166.75
2018-06-14T05:08:47.044Z,101168.93
2018-06-14T05:11:15.199Z,101171.73
2018-06-14T05:13:43.160Z,101170.03
2018-06-14T05:16:12.078Z,101178.34
2018-06-14T05:18:39.824Z,101179.63
2018-06-14T05:21:08.743Z,101183.55
2018-06-14T05:23:37.124Z,101183.16
2018-06-14T05:26:05.388Z,101181.37
2018-06-14T05:28:33.726Z,101185.63
2018-06-14T05:31:02.068Z,101188.59
2018-06-14T05:33:30.404Z,101189.51
2018-06-14T05:35:58.186Z,101189.95
2018-06-14T05:38:26.478Z,101189.30
2018-06-14T05:40:55.385Z,101197.14
2018-06-14T05:43:23.780Z,101202.69
2018-06-14T05:45:52.854Z,101206.34
2018-06-14T05:48:20.710Z,101205.59
2018-06-14T05:50:48.679Z,101203.48
2018-06-14T05:53:17.570Z,101209.55
2018-06-14T05:55:47.341Z,101208.25
2018-06-14T05:58:15.681Z,101210.71
2018-06-14T06:00:44.589Z,101207.62
2018-06-14T06:03:12.927Z,101203.77
2018-06-14T06:05:41.259Z,101210.41
2018-06-14T06:08:09.584Z,101201.64
2018-06-14T06:10:38.776Z,101204.83
2018-06-14T06:13:06.477Z,101208.59
2018-06-14T06:15:35.403Z,101212.92
2018-06-14T06:18:03.182Z,101217.68
2018-06-14T06:20:31.546Z,101214.87
2018-06-14T06:22:59.892Z,101214.69
2018-06-14T06:25:27.642Z,101211.72
2018-06-14T06:27:56.560Z,101217.00
2018-06-14T06:30:25.471Z,101214.98
2018-06-14T06:32:53.818Z,101212.89
2018-06-14T06:35:24.546Z,101213.73
2018-06-14T06:37:52.877Z,101218.06
2018-06-14T06:40:21.710Z,101221.83
2018-06-14T06:42:49.608Z,101217.20
2018-06-14T06:48:08.073Z,101226.06
2018-06-14T06:50:37.735Z,101225.28
2018-06-14T06:53:06.075Z,101228.56
2018-06-14T06:55:34.420Z,101230.41
2018-06-14T06:58:02.374Z,101225.05
2018-06-14T07:00:31.078Z,101226.63
2018-06-14T07:02:58.824Z,101232.26
2018-06-14T07:05:27.736Z,101232.31
2018-06-14T07:07:55.495Z,101230.91
2018-06-14T07:10:23.813Z,101236.97
2018-06-14T07:12:52.740Z,101242.75
2018-06-14T07:15:21.108Z,101246.45
2018-06-14T07:17:48.880Z,101243.98
2018-06-14T07:20:17.799Z,101245.66
2018-06-14T07:22:46.136Z,101255.06
2018-06-14T07:25:14.472Z,101249.31
2018-06-14T07:27:42.861Z,101251.38
2018-06-14T07:30:12.533Z,101260.84
2018-06-14T07:32:39.523Z,101260.73
2018-06-14T07:35:07.877Z,101256.49
2018-06-14T07:37:35.642Z,101249.72
2018-06-14T07:40:04.570Z,101256.59
2018-06-14T07:42:33.143Z,101264.56
2018-06-14T07:45:01.252Z,101266.78
2018-06-14T07:47:29.651Z,101262.35
2018-06-14T07:49:57.994Z,101260.73
2018-06-14T07:52:26.346Z,101253.34
2018-06-14T07:54:54.698Z,101256.54
2018-06-14T07:57:24.585Z,101247.80
2018-06-14T07:59:52.919Z,101254.45
2018-06-14T08:02:20.723Z,101256.48
2018-06-14T08:04:49.660Z,101265.05
2018-06-14T08:07:18.316Z,101267.00
2018-06-14T08:09:46.074Z,101265.23
2018-06-14T08:12:15.022Z,101259.12
2018-06-14T08:14:44.209Z,101255.98
2018-06-14T08:17:12.532Z,101258.59
2018-06-14T08:19:40.867Z,101261.55
2018-06-14T08:22:09.199Z,101262.38
2018-06-14T08:24:37.543Z,101259.28
2018-06-14T08:27:05.862Z,101259.78
2018-06-14T08:29:34.181Z,101265.54
2018-06-14T08:32:02.537Z,101260.70
2018-06-14T08:34:30.889Z,101259.70
2018-06-14T08:36:59.217Z,101263.65
2018-06-14T08:39:35.337Z,101257.37
2018-06-14T08:41:59.679Z,101262.00
2018-06-14T08:44:28.178Z,101265.48
2018-06-14T08:46:56.508Z,101275.38
2018-06-14T08:49:25.005Z,101275.77
2018-06-14T08:51:53.341Z,101281.58
2018-06-14T08:54:21.702Z,101284.27
2018-06-14T08:56:50.031Z,101287.11
2018-06-14T08:59:18.402Z,101294.79
2018-06-14T09:04:46.376Z,101299.64
2018-06-14T09:07:14.712Z,101304.27
2018-06-14T09:09:42.822Z,101309.27
2018-06-14T09:12:11.459Z,101299.24
2018-06-14T09:14:39.568Z,101306.52
2018-06-14T09:17:07.876Z,101309.47
2018-06-14T09:19:36.195Z,101310.83
2018-06-14T09:22:04.541Z,101311.14
2018-06-14T09:24:32.883Z,101309.16
2018-06-14T09:27:01.221Z,101309.70
2018-06-14T09:29:28.970Z,101311.42
2018-06-14T09:31:57.899Z,101307.05
2018-06-14T09:34:26.227Z,101316.24
2018-06-14T09:36:54.563Z,101314.31
2018-06-14T09:39:22.917Z,101310.08
2018-06-14T09:41:50.855Z,101313.69
2018-06-14T09:44:20.262Z,101310.66
2018-06-14T09:46:49.418Z,101307.47
2018-06-14T09:49:39.137Z,101317.21
2018-06-14T09:52:06.854Z,101317.20
2018-06-14T09:54:35.231Z,101316.09
2018-06-14T09:57:03.548Z,101318.28
2018-06-14T09:59:32.720Z,101324.91
2018-06-14T10:02:00.247Z,101325.48
2018-06-14T10:04:29.155Z,101320.75
2018-06-14T10:06:57.491Z,101325.05
2018-06-14T10:09:25.840Z,101334.45
2018-06-14T10:11:54.195Z,101332.50
2018-06-14T10:14:22.540Z,101330.80
2018-06-14T10:16:50.887Z,101332.89
2018-06-14T10:19:19.221Z,101333.75
2018-06-14T10:21:47.569Z,101328.36
2018-06-14T10:24:16.169Z,101331.84
2018-06-14T10:26:44.508Z,101332.34
2018-06-14T10:29:12.845Z,101329.67
2018-06-14T10:31:41.173Z,101326.50
2018-06-14T10:34:09.531Z,101328.41
2018-06-14T10:36:37.847Z,101328.86
2018-06-14T10:39:06.194Z,101328.69
2018-06-14T10:41:34.537Z,101331.77
2018-06-14T10:44:02.875Z,101337.14
2018-06-14T10:46:31.213Z,101333.34
2018-06-14T10:48:59.587Z,101325.72
2018-06-14T10:51:27.952Z,101333.02
2018-06-14T10:53:56.300Z,101329.71
2018-06-14T10:56:25.841Z,101335.14
2018-06-14T10:58:56.577Z,101333.67
2018-06-14T11:01:23.242Z,101328.83
2018-06-14T11:04:00.867Z,101332.59
2018-06-14T11:06:29.092Z,101331.52
2018-06-14T11:09:00.595Z,101323.52
2018-06-14T11:11:28.974Z,101330.56
2018-06-14T11:13:57.297Z,101327.81
2018-06-14T11:16:25.055Z,101332.73
2018-06-14T11:18:53.385Z,101336.14
2018-06-14T11:21:22.341Z,101337.30
2018-06-14T11:23:50.672Z,101340.24
2018-06-14T11:26:18.994Z,101341.02
2018-06-14T11:28:47.342Z,101345.60
2018-06-14T11:31:15.670Z,101343.19
2018-06-14T11:33:44.016Z,101345.31
2018-06-14T11:36:12.337Z,101343.03
2018-06-14T11:38:40.667Z,101345.93
2018-06-14T11:41:08.995Z,101337.45
2018-06-14T11:43:37.309Z,101336.77
2018-06-14T11:46:05.664Z,101330.97
2018-06-14T11:48:33.985Z,101334.08
2018-06-14T11:51:02.322Z,101331.78
2018-06-14T11:53:30.132Z,101337.80
2018-06-14T11:55:59.040Z,101329.00
2018-06-14T11:58:27.381Z,101330.80
2018-06-14T12:00:55.719Z,101331.08
2018-06-14T12:03:24.044Z,101335.11
2018-06-14T12:05:52.473Z,101328.06
2018-06-14T12:08:20.851Z,101333.83
2018-06-14T12:10:49.508Z,101331.42
2018-06-14T12:13:17.845Z,101334.98
2018-06-14T12:15:45.602Z,101336.78
2018-06-14T12:18:13.916Z,101332.55
2018-06-14T12:20:42.837Z,101333.34
2018-06-14T12:23:11.170Z,101336.12
2018-06-14T12:25:38.906Z,101335.50
2018-06-14T12:28:08.143Z,101337.53
2018-06-14T12:30:36.479Z,101340.25
2018-06-14T12:33:04.809Z,101341.72
2018-06-14T12:35:33.172Z,101345.23
2018-06-14T12:38:00.913Z,101336.53
2018-06-14T12:40:29.840Z,101341.98
2018-06-14T12:42:58.165Z,101349.49
2018-06-14T12:45:26.498Z,101347.98
2018-06-14T12:47:54.264Z,101347.52
2018-06-14T12:50:23.175Z,101345.40
2018-06-14T12:52:51.760Z,101347.16
2018-06-14T12:55:20.154Z,101347.68
2018-06-14T12:57:48.482Z,101348.50
2018-06-14T13:00:16.820Z,101347.59
2018-06-14T13:02:44.572Z,101348.17
2018-06-14T13:05:13.487Z,101350.17
2018-06-14T13:07:41.808Z,101343.86
2018-06-14T13:10:10.976Z,101347.28
2018-06-14T13:12:38.153Z,101347.97
2018-06-14T13:15:07.064Z,101342.88
2018-06-14T13:17:35.637Z,101340.68
2018-06-14T13:20:03.379Z,101338.09
2018-06-14T13:22:32.511Z,101333.36
2018-06-14T13:25:00.611Z,101331.80
2018-06-14T13:27:28.365Z,101328.61
2018-06-14T13:29:56.684Z,101330.16
2018-06-14T13:32:25.010Z,101329.88
2018-06-14T13:34:53.480Z,101334.35
2018-06-14T13:37:21.907Z,101329.44
2018-06-14T13:39:50.736Z,101317.38
2018-06-14T13:42:19.064Z,101324.47
2018-06-14T13:44:46.811Z,101320.14
2018-06-14T13:47:15.730Z,101315.36
2018-06-14T13:49:44.058Z,101316.64
2018-06-14T13:52:12.394Z,101309.14
2018-06-14T13:54:40.136Z,101310.52
2018-06-14T13:57:09.077Z,101307.54
2018-06-14T13:59:37.627Z,101309.81
2018-06-14T14:02:05.725Z,101315.70
2018-06-14T14:04:34.076Z,101314.05
2018-06-14T14:07:02.410Z,101316.36
2018-06-14T14:09:30.157Z,101320.04
2018-06-14T14:11:59.097Z,101321.02
2018-06-14T14:14:27.450Z,101317.31
2018-06-14T14:16:55.767Z,101321.31
2018-06-14T14:19:24.704Z,101318.27
2018-06-14T14:21:53.024Z,101314.23
2018-06-14T14:24:21.356Z,101310.98
2018-06-14T14:26:49.696Z,101309.55
2018-06-14T14:29:18.054Z,101307.00
2018-06-14T14:31:46.442Z,101308.09
2018-06-14T14:34:14.771Z,101307.05
2018-06-14T14:36:42.526Z,101304.93
2018-06-14T14:39:11.591Z,101305.70
2018-06-14T14:41:40.139Z,101298.86
2018-06-14T14:44:09.904Z,101295.56
2018-06-14T14:46:46.203Z,101291.05
2018-06-14T14:49:17.516Z,101288.14
2018-06-14T14:51:46.696Z,101289.88
2018-06-14T14:54:17.603Z,101292.19
2018-06-14T14:56:46.692Z,101293.19
2018-06-14T14:59:14.973Z,101294.75
2018-06-14T15:01:43.333Z,101291.56
2018-06-14T15:04:11.912Z,101289.71
2018-06-14T15:06:41.788Z,101295.14
2018-06-14T15:09:10.232Z,101296.30
2018-06-14T15:11:38.558Z,101294.38
2018-06-14T15:14:06.900Z,101295.97
2018-06-14T15:16:35.216Z,101295.13
2018-06-14T15:19:03.282Z,101299.16
2018-06-14T15:21:31.876Z,101302.13
2018-06-14T15:24:00.449Z,101304.23
2018-06-14T15:26:29.078Z,101310.83
2018-06-14T15:28:59.255Z,101310.09
2018-06-14T15:31:27.556Z,101304.63
2018-06-14T15:33:55.344Z,101305.48
2018-06-14T15:36:24.207Z,101306.81
2018-06-14T15:38:52.560Z,101305.38
2018-06-14T15:41:20.323Z,101305.48
2018-06-14T15:43:49.257Z,101300.33
2018-06-14T15:46:17.616Z,101301.34
2018-06-14T15:48:45.982Z,101301.44
2018-06-14T15:51:14.304Z,101303.41
2018-06-14T15:53:42.665Z,101301.85
2018-06-14T15:56:22.304Z,101306.65
2018-06-14T15:58:51.548Z,101310.20
2018-06-14T16:01:20.494Z,101312.77
2018-06-14T16:03:48.830Z,101311.20
2018-06-14T16:06:17.203Z,101312.80
2018-06-14T16:08:45.521Z,101314.19
2018-06-14T16:11:13.258Z,101317.19
2018-06-14T16:13:41.594Z,101316.23
2018-06-14T16:16:10.495Z,101309.62
2018-06-14T16:18:38.241Z,101307.17
2018-06-14T16:21:07.143Z,101302.78
2018-06-14T16:23:35.476Z,101311.41
2018-06-14T16:26:03.292Z,101316.45
2018-06-14T16:28:32.333Z,101314.70
2018-06-14T16:31:00.657Z,101314.84
2018-06-14T16:33:28.993Z,101316.06
2018-06-14T16:35:57.311Z,101316.40
2018-06-14T16:38:31.745Z,101314.27
2018-06-14T16:41:00.225Z,101313.42
2018-06-14T16:46:22.338Z,101322.06
2018-06-14T16:48:50.514Z,101319.00
2018-06-14T16:51:18.826Z,101319.05
2018-06-14T16:53:47.151Z,101314.30
2018-06-14T16:56:15.695Z,101315.88
2018-06-14T16:58:43.859Z,101318.51
2018-06-14T17:01:12.257Z,101314.05
2018-06-14T17:03:40.630Z,101314.67
2018-06-14T17:06:09.191Z,101314.18
2018-06-14T17:08:37.301Z,101316.70
2018-06-14T17:11:06.723Z,101310.32
2018-06-14T17:13:35.127Z,101314.70
2018-06-14T17:16:03.560Z,101315.69
2018-06-14T17:18:31.852Z,101322.17
2018-06-14T17:21:00.182Z,101322.57
2018-06-14T17:23:28.786Z,101325.31
2018-06-14T17:25:57.130Z,101320.74
2018-06-14T17:28:25.475Z,101319.08
2018-06-14T17:30:53.819Z,101317.32
2018-06-14T17:33:22.143Z,101319.24
2018-06-14T17:35:52.562Z,101312.34
2018-06-14T17:38:21.257Z,101313.73
2018-06-14T17:40:49.006Z,101316.19
2018-06-14T17:43:17.932Z,101313.32
2018-06-14T17:45:46.254Z,101314.89
2018-06-14T17:48:14.017Z,101312.76
2018-06-14T17:50:42.939Z,101317.16
2018-06-14T17:53:11.275Z,101320.78
2018-06-14T17:55:39.601Z,101320.56
2018-06-14T17:58:07.368Z,101322.84
2018-06-14T18:00:36.272Z,101321.45
2018-06-14T18:03:05.674Z,101325.58
2018-06-14T18:05:34.069Z,101328.03
2018-06-14T18:08:02.391Z,101328.73
2018-06-14T18:10:30.710Z,101332.52
2018-06-14T18:13:00.666Z,101334.77
2018-06-14T18:15:28.270Z,101332.68
2018-06-14T18:17:56.610Z,101335.64
2018-06-14T18:20:25.220Z,101339.00
2018-06-14T18:22:53.840Z,101339.47
2018-06-14T18:25:22.150Z,101337.10
2018-06-14T18:27:50.516Z,101338.20
2018-06-14T18:30:18.980Z,101342.23
2018-06-14T18:32:47.523Z,101346.88
2018-06-14T18:35:15.321Z,101347.12
2018-06-14T18:37:44.242Z,101350.52
2018-06-14T18:40:12.678Z,101352.23
2018-06-14T18:42:41.008Z,101356.40
2018-06-14T18:45:09.354Z,101365.87
2018-06-14T18:47:37.702Z,101370.05
2018-06-14T18:50:06.032Z,101368.33
2018-06-14T18:52:33.782Z,101368.51
2018-06-14T18:55:02.702Z,101374.22
2018-06-14T18:57:31.061Z,101376.69
2018-06-14T18:59:59.387Z,101382.92
2018-06-14T19:02:27.708Z,101387.56
2018-06-14T19:04:56.107Z,101388.42
2018-06-14T19:07:24.573Z,101392.53
2018-06-14T19:09:52.931Z,101395.12
2018-06-14T19:12:21.545Z,101393.17
2018-06-14T19:14:49.908Z,101395.65
2018-06-14T19:17:18.324Z,101403.06
2018-06-14T19:19:46.659Z,101405.71
2018-06-14T19:22:14.995Z,101403.48
2018-06-14T19:24:43.322Z,101404.38
2018-06-14T19:27:11.662Z,101403.96
2018-06-14T19:29:40.045Z,101405.82
2018-06-14T19:32:08.448Z,101412.34
2018-06-14T19:34:36.789Z,101423.94
2018-06-14T19:37:05.116Z,101430.84
2018-06-14T19:39:33.478Z,101437.45
2018-06-14T19:42:01.259Z,101438.00
2018-06-14T19:44:29.593Z,101442.07
2018-06-14T19:46:58.506Z,101440.70
2018-06-14T19:49:26.302Z,101440.55
2018-06-14T19:51:55.669Z,101438.25
2018-06-14T19:54:23.843Z,101438.89
2018-06-14T19:56:52.752Z,101443.53
2018-06-14T19:59:21.079Z,101451.39
2018-06-14T20:01:52.343Z,101457.11
2018-06-14T20:04:20.719Z,101453.73
2018-06-14T20:06:48.544Z,101453.75
2018-06-14T20:09:18.315Z,101448.62
2018-06-14T20:11:46.056Z,101447.89
2018-06-14T20:14:15.549Z,101450.42
2018-06-14T20:16:43.305Z,101451.20
2018-06-14T20:19:12.218Z,101453.30
2018-06-14T20:21:39.997Z,101451.37
2018-06-14T20:24:08.968Z,101457.14
2018-06-14T20:26:36.785Z,101466.30
2018-06-14T20:29:05.759Z,101468.83
2018-06-14T20:31:34.086Z,101467.09
2018-06-14T20:34:03.452Z,101472.01
2018-06-14T20:36:31.787Z,101467.70
2018-06-14T20:39:00.114Z,101466.39
2018-06-14T20:41:27.861Z,101463.48
2018-06-14T20:43:56.765Z,101468.89
2018-06-14T20:46:25.110Z,101469.29
2018-06-14T20:48:53.440Z,101471.36
2018-06-14T20:51:21.780Z,101473.72
2018-06-14T20:53:50.104Z,101471.19
2018-06-14T20:56:18.434Z,101464.23
2018-06-14T20:58:46.871Z,101469.52
2018-06-14T21:01:15.217Z,101471.81
2018-06-14T21:03:43.542Z,101474.27
2018-06-14T21:06:11.279Z,101472.94
2018-06-14T21:08:40.229Z,101469.95
2018-06-14T21:11:08.547Z,101471.11
2018-06-14T21:13:37.829Z,101470.55
2018-06-14T21:16:04.901Z,101471.97
2018-06-14T21:18:33.811Z,101470.77
2018-06-14T21:21:01.563Z,101470.05
2018-06-14T21:23:29.899Z,101471.89
2018-06-14T21:25:58.805Z,101472.20
2018-06-14T21:28:26.564Z,101469.75
2018-06-14T21:30:55.477Z,101466.14
2018-06-14T21:33:23.830Z,101462.92
2018-06-14T21:35:52.134Z,101459.48
2018-06-14T21:38:20.464Z,101462.00
2018-06-14T21:40:48.785Z,101465.75
2018-06-14T21:43:17.113Z,101467.67
2018-06-14T21:45:45.441Z,101464.31
2018-06-14T21:48:13.757Z,101465.08
2018-06-14T21:50:42.074Z,101460.86
2018-06-14T21:53:10.401Z,101462.52
2018-06-14T21:55:38.718Z,101466.55
2018-06-14T21:58:07.102Z,101463.75
2018-06-14T22:00:35.431Z,101456.45
2018-06-14T22:03:03.753Z,101458.13
2018-06-14T22:05:31.494Z,101456.69
2018-06-14T22:08:00.393Z,101457.65
2018-06-14T22:10:28.773Z,101460.27
2018-06-14T22:12:57.109Z,101461.52
2018-06-14T22:15:24.851Z,101460.58
2018-06-14T22:17:53.747Z,101454.70
2018-06-14T22:20:22.354Z,101449.98
2018-06-14T22:22:50.451Z,101451.19
2018-06-14T22:25:18.775Z,101450.17
2018-06-14T22:27:47.103Z,101446.25
2018-06-14T22:30:15.425Z,101441.34
2018-06-14T22:32:43.765Z,101437.67
2018-06-14T22:35:12.105Z,101436.92
2018-06-14T22:37:40.425Z,101433.81
2018-06-14T22:40:08.746Z,101436.70
2018-06-14T22:42:36.500Z,101436.50
2018-06-14T22:45:05.413Z,101432.30
2018-06-14T22:47:33.731Z,101431.75
2018-06-14T22:50:02.292Z,101428.45
2018-06-14T22:52:30.398Z,101427.49
2018-06-14T22:54:58.968Z,101425.73
2018-06-14T22:57:27.036Z,101429.89
2018-06-14T22:59:55.356Z,101424.03
2018-06-14T23:02:23.685Z,101427.06
2018-06-14T23:04:52.007Z,101420.48
2018-06-14T23:07:19.745Z,101424.05
2018-06-14T23:10:00.398Z,101419.28
2018-06-14T23:12:28.822Z,101419.30
2018-06-14T23:14:57.155Z,101417.11
2018-06-14T23:17:25.470Z,101415.48
2018-06-14T23:19:53.782Z,101420.94
2018-06-14T23:22:22.100Z,101414.89
2018-06-14T23:24:50.426Z,101411.64
2018-06-14T23:27:18.158Z,101409.30
2018-06-14T23:29:47.065Z,101411.92
2018-06-14T23:32:14.802Z,101412.86
2018-06-14T23:34:43.718Z,101414.88
2018-06-14T23:37:12.045Z,101408.04
2018-06-14T23:39:40.070Z,101407.34
2018-06-14T23:42:08.116Z,101405.75
2018-06-14T23:44:37.010Z,101406.45
2018-06-14T23:47:05.338Z,101403.03
2018-06-14T23:49:33.654Z,101396.02
2018-06-14T23:52:01.986Z,101395.67
2018-06-14T23:54:30.312Z,101393.94
2018-06-14T23:56:58.650Z,101395.63
2018-06-14T23:59:26.962Z,101395.45
